HOR weather

Horta Airport
Horta, Autonomous Region of Azores, Portugal

Public forecast

Using degrees Celsius for public forecast. Weather courtesy of forecast.io.

METAR (pilot weather report)

Retrieved 2019/08/17 16:30 UTC (0 seconds ago):

LPHR 171630Z 05017G27KT 020V080 9999 FEW011 SCT050 26/20 Q1018

TAF (pilot weather forecast)

Forecast is more than 12 hours old.

Retrieved 2018/09/06 09:00 UTC (12 months ago):

TAF LPHR 060800Z 0609/0618 12010KT 9999 SCT018 SCT040 PROB30 TEMPO 0609/0618 5000 SHRA BKN015 FEW018CB BECMG 0610/0612 18010KT